sensor_id;sensor_type;location;lat;lon;timestamp;P1;durP1;ratioP1;P2;durP2;ratioP2
43327;SDS011;28923;45.412;10.852;2023-11-19T05:02:19;1.05;;;1.00;;
43327;SDS011;28923;45.412;10.852;2023-11-19T05:04:44;1.23;;;1.00;;
43327;SDS011;28923;45.412;10.852;2023-11-19T05:07:11;1.10;;;0.88;;
43327;SDS011;28923;45.412;10.852;2023-11-19T05:09:37;1.15;;;0.93;;
43327;SDS011;28923;45.412;10.852;2023-11-19T05:12:02;1.38;;;1.10;;
43327;SDS011;28923;45.412;10.852;2023-11-19T05:14:28;1.75;;;1.10;;
43327;SDS011;28923;45.412;10.852;2023-11-19T05:16:53;1.10;;;1.00;;
43327;SDS011;28923;45.412;10.852;2023-11-19T05:19:18;1.33;;;0.93;;
43327;SDS011;28923;45.412;10.852;2023-11-19T05:21:44;1.20;;;1.10;;
43327;SDS011;28923;45.412;10.852;2023-11-19T05:24:09;1.20;;;1.10;;
43327;SDS011;28923;45.412;10.852;2023-11-19T05:26:35;1.13;;;1.02;;
43327;SDS011;28923;45.412;10.852;2023-11-19T05:29:00;1.05;;;0.90;;
43327;SDS011;28923;45.412;10.852;2023-11-19T05:31:26;1.10;;;1.00;;
43327;SDS011;28923;45.412;10.852;2023-11-19T05:33:52;2.30;;;1.00;;
43327;SDS011;28923;45.412;10.852;2023-11-19T05:36:17;1.20;;;1.10;;
43327;SDS011;28923;45.412;10.852;2023-11-19T05:38:42;1.10;;;1.00;;
43327;SDS011;28923;45.412;10.852;2023-11-19T05:41:09;1.17;;;1.00;;
43327;SDS011;28923;45.412;10.852;2023-11-19T05:43:35;1.10;;;0.90;;
43327;SDS011;28923;45.412;10.852;2023-11-19T05:46:00;1.38;;;1.10;;
43327;SDS011;28923;45.412;10.852;2023-11-19T05:48:29;1.00;;;0.90;;
43327;SDS011;28923;45.412;10.852;2023-11-19T05:50:54;1.20;;;1.10;;
43327;SDS011;28923;45.412;10.852;2023-11-19T05:53:20;1.00;;;0.90;;
43327;SDS011;28923;45.412;10.852;2023-11-19T05:55:45;0.90;;;0.90;;
43327;SDS011;28923;45.412;10.852;2023-11-19T05:58:20;1.10;;;1.00;;
43327;SDS011;28923;45.412;10.852;2023-11-19T06:00:46;0.70;;;0.70;;
43327;SDS011;28923;45.412;10.852;2023-11-19T06:03:12;1.00;;;1.00;;
43327;SDS011;28923;45.412;10.852;2023-11-19T06:05:37;1.30;;;1.10;;
43327;SDS011;28923;45.412;10.852;2023-11-19T06:08:02;0.77;;;0.77;;
43327;SDS011;28923;45.412;10.852;2023-11-19T06:10:28;1.00;;;0.90;;
43327;SDS011;28923;45.412;10.852;2023-11-19T06:12:59;1.30;;;1.10;;
43327;SDS011;28923;45.412;10.852;2023-11-19T06:15:27;1.02;;;0.80;;
43327;SDS011;28923;45.412;10.852;2023-11-19T06:17:53;0.73;;;0.70;;
43327;SDS011;28923;45.412;10.852;2023-11-19T06:20:19;1.20;;;1.10;;
43327;SDS011;28923;45.412;10.852;2023-11-19T06:22:45;1.08;;;0.98;;
43327;SDS011;28923;45.412;10.852;2023-11-19T06:25:11;1.17;;;1.08;;
43327;SDS011;28923;45.412;10.852;2023-11-19T06:27:36;0.80;;;0.80;;
43327;SDS011;28923;45.412;10.852;2023-11-19T06:30:02;0.90;;;0.85;;
43327;SDS011;28923;45.412;10.852;2023-11-19T06:32:27;1.17;;;1.08;;
43327;SDS011;28923;45.412;10.852;2023-11-19T06:34:53;2.28;;;1.00;;
43327;SDS011;28923;45.412;10.852;2023-11-19T06:37:19;1.10;;;0.90;;
43327;SDS011;28923;45.412;10.852;2023-11-19T06:39:44;1.67;;;1.10;;
43327;SDS011;28923;45.412;10.852;2023-11-19T06:42:10;1.83;;;1.20;;
43327;SDS011;28923;45.412;10.852;2023-11-19T06:44:36;2.90;;;1.35;;
43327;SDS011;28923;45.412;10.852;2023-11-19T06:47:02;3.75;;;1.10;;
43327;SDS011;28923;45.412;10.852;2023-11-19T06:49:27;2.90;;;1.27;;
43327;SDS011;28923;45.412;10.852;2023-11-19T06:51:52;2.00;;;1.13;;
43327;SDS011;28923;45.412;10.852;2023-11-19T06:54:18;4.78;;;1.27;;
43327;SDS011;28923;45.412;10.852;2023-11-19T06:56:43;3.17;;;1.17;;
43327;SDS011;28923;45.412;10.852;2023-11-19T06:59:09;6.75;;;1.40;;
43327;SDS011;28923;45.412;10.852;2023-11-19T07:01:37;3.45;;;1.27;;
43327;SDS011;28923;45.412;10.852;2023-11-19T07:04:03;2.60;;;1.35;;
43327;SDS011;28923;45.412;10.852;2023-11-19T07:06:34;2.83;;;0.98;;
43327;SDS011;28923;45.412;10.852;2023-11-19T07:09:00;2.13;;;1.00;;
43327;SDS011;28923;45.412;10.852;2023-11-19T07:11:34;1.20;;;0.98;;
43327;SDS011;28923;45.412;10.852;2023-11-19T07:14:00;2.65;;;1.20;;
43327;SDS011;28923;45.412;10.852;2023-11-19T07:16:25;1.55;;;1.13;;
43327;SDS011;28923;45.412;10.852;2023-11-19T07:18:51;1.20;;;1.00;;
43327;SDS011;28923;45.412;10.852;2023-11-19T07:21:16;4.53;;;1.10;;
43327;SDS011;28923;45.412;10.852;2023-11-19T07:23:42;2.92;;;0.98;;
43327;SDS011;28923;45.412;10.852;2023-11-19T07:26:08;7.00;;;1.20;;
43327;SDS011;28923;45.412;10.852;2023-11-19T07:28:33;2.38;;;1.13;;
43327;SDS011;28923;45.412;10.852;2023-11-19T07:30:59;2.88;;;1.25;;
43327;SDS011;28923;45.412;10.852;2023-11-19T07:33:25;2.63;;;0.85;;
43327;SDS011;28923;45.412;10.852;2023-11-19T07:35:50;3.67;;;1.40;;
43327;SDS011;28923;45.412;10.852;2023-11-19T07:38:16;5.78;;;1.15;;
43327;SDS011;28923;45.412;10.852;2023-11-19T07:40:41;2.35;;;1.10;;
43327;SDS011;28923;45.412;10.852;2023-11-19T07:43:06;4.50;;;1.20;;
43327;SDS011;28923;45.412;10.852;2023-11-19T07:45:32;2.38;;;1.17;;
43327;SDS011;28923;45.412;10.852;2023-11-19T07:47:57;7.97;;;1.17;;
43327;SDS011;28923;45.412;10.852;2023-11-19T07:50:23;6.57;;;1.50;;
43327;SDS011;28923;45.412;10.852;2023-11-19T07:52:49;1.27;;;0.93;;
43327;SDS011;28923;45.412;10.852;2023-11-19T07:55:15;6.18;;;1.30;;
43327;SDS011;28923;45.412;10.852;2023-11-19T07:57:40;9.13;;;1.10;;
43327;SDS011;28923;45.412;10.852;2023-11-19T08:00:06;4.68;;;1.77;;
43327;SDS011;28923;45.412;10.852;2023-11-19T08:02:38;3.53;;;1.00;;
43327;SDS011;28923;45.412;10.852;2023-11-19T08:05:04;1.70;;;1.38;;
43327;SDS011;28923;45.412;10.852;2023-11-19T08:07:29;2.67;;;1.30;;
43327;SDS011;28923;45.412;10.852;2023-11-19T08:09:54;3.90;;;1.20;;
43327;SDS011;28923;45.412;10.852;2023-11-19T08:12:20;1.25;;;0.80;;
43327;SDS011;28923;45.412;10.852;2023-11-19T08:14:45;7.38;;;1.02;;
43327;SDS011;28923;45.412;10.852;2023-11-19T08:17:11;3.50;;;1.10;;
43327;SDS011;28923;45.412;10.852;2023-11-19T08:19:36;4.88;;;1.10;;
43327;SDS011;28923;45.412;10.852;2023-11-19T08:22:01;1.42;;;1.05;;
43327;SDS011;28923;45.412;10.852;2023-11-19T08:24:27;2.58;;;0.93;;
43327;SDS011;28923;45.412;10.852;2023-11-19T08:26:53;1.67;;;0.90;;
43327;SDS011;28923;45.412;10.852;2023-11-19T08:29:19;3.00;;;0.80;;
43327;SDS011;28923;45.412;10.852;2023-11-19T08:31:44;3.45;;;1.17;;
43327;SDS011;28923;45.412;10.852;2023-11-19T08:34:11;4.30;;;1.13;;
43327;SDS011;28923;45.412;10.852;2023-11-19T08:36:36;2.55;;;1.30;;
43327;SDS011;28923;45.412;10.852;2023-11-19T08:39:02;4.32;;;1.20;;
43327;SDS011;28923;45.412;10.852;2023-11-19T08:41:28;4.10;;;1.10;;
43327;SDS011;28923;45.412;10.852;2023-11-19T08:43:53;2.20;;;1.38;;
43327;SDS011;28923;45.412;10.852;2023-11-19T08:46:18;1.95;;;1.20;;
43327;SDS011;28923;45.412;10.852;2023-11-19T08:48:44;3.20;;;0.90;;
43327;SDS011;28923;45.412;10.852;2023-11-19T08:51:10;2.78;;;1.45;;
43327;SDS011;28923;45.412;10.852;2023-11-19T08:53:35;3.55;;;1.52;;
43327;SDS011;28923;45.412;10.852;2023-11-19T08:56:01;5.00;;;1.40;;
43327;SDS011;28923;45.412;10.852;2023-11-19T08:58:28;2.30;;;1.08;;
43327;SDS011;28923;45.412;10.852;2023-11-19T09:00:53;5.35;;;1.30;;
43327;SDS011;28923;45.412;10.852;2023-11-19T09:03:18;3.65;;;1.23;;
43327;SDS011;28923;45.412;10.852;2023-11-19T09:05:45;2.45;;;1.10;;
43327;SDS011;28923;45.412;10.852;2023-11-19T09:08:10;5.00;;;1.83;;
43327;SDS011;28923;45.412;10.852;2023-11-19T09:10:37;8.25;;;1.42;;
43327;SDS011;28923;45.412;10.852;2023-11-19T09:13:02;3.85;;;1.10;;
43327;SDS011;28923;45.412;10.852;2023-11-19T09:18:57;2.47;;;1.20;;
43327;SDS011;28923;45.412;10.852;2023-11-19T09:21:23;4.75;;;1.02;;
43327;SDS011;28923;45.412;10.852;2023-11-19T09:23:48;4.75;;;1.50;;
43327;SDS011;28923;45.412;10.852;2023-11-19T09:26:14;2.53;;;1.30;;
43327;SDS011;28923;45.412;10.852;2023-11-19T09:28:39;4.63;;;1.75;;
43327;SDS011;28923;45.412;10.852;2023-11-19T09:31:14;3.67;;;1.13;;
43327;SDS011;28923;45.412;10.852;2023-11-19T09:33:40;1.35;;;1.10;;
43327;SDS011;28923;45.412;10.852;2023-11-19T09:36:05;4.45;;;1.25;;
43327;SDS011;28923;45.412;10.852;2023-11-19T09:38:31;5.78;;;1.52;;
43327;SDS011;28923;45.412;10.852;2023-11-19T09:40:58;4.28;;;1.40;;
43327;SDS011;28923;45.412;10.852;2023-11-19T09:43:23;5.10;;;1.42;;
43327;SDS011;28923;45.412;10.852;2023-11-19T09:45:49;7.45;;;1.30;;
43327;SDS011;28923;45.412;10.852;2023-11-19T09:48:18;5.65;;;1.45;;
43327;SDS011;28923;45.412;10.852;2023-11-19T09:50:44;5.40;;;1.30;;
43327;SDS011;28923;45.412;10.852;2023-11-19T09:53:10;27.25;;;2.10;;
43327;SDS011;28923;45.412;10.852;2023-11-19T09:55:35;2.70;;;1.20;;
43327;SDS011;28923;45.412;10.852;2023-11-19T09:58:01;4.10;;;1.55;;
43327;SDS011;28923;45.412;10.852;2023-11-19T10:00:26;7.85;;;1.73;;
43327;SDS011;28923;45.412;10.852;2023-11-19T10:02:52;1.88;;;1.23;;
43327;SDS011;28923;45.412;10.852;2023-11-19T10:05:19;4.40;;;1.60;;
43327;SDS011;28923;45.412;10.852;2023-11-19T10:07:45;7.65;;;1.38;;
43327;SDS011;28923;45.412;10.852;2023-11-19T10:10:12;6.95;;;1.73;;
43327;SDS011;28923;45.412;10.852;2023-11-19T10:12:40;2.35;;;1.65;;
43327;SDS011;28923;45.412;10.852;2023-11-19T10:15:06;4.43;;;1.80;;
43327;SDS011;28923;45.412;10.852;2023-11-19T10:17:35;2.47;;;1.60;;
43327;SDS011;28923;45.412;10.852;2023-11-19T10:20:00;4.10;;;1.70;;
43327;SDS011;28923;45.412;10.852;2023-11-19T10:22:27;6.13;;;1.80;;
43327;SDS011;28923;45.412;10.852;2023-11-19T10:24:52;2.83;;;1.67;;
43327;SDS011;28923;45.412;10.852;2023-11-19T10:27:18;2.85;;;1.90;;
43327;SDS011;28923;45.412;10.852;2023-11-19T10:29:47;4.15;;;1.73;;
43327;SDS011;28923;45.412;10.852;2023-11-19T10:32:12;2.67;;;1.40;;
43327;SDS011;28923;45.412;10.852;2023-11-19T10:34:39;3.72;;;1.38;;
43327;SDS011;28923;45.412;10.852;2023-11-19T10:37:04;5.00;;;1.88;;
43327;SDS011;28923;45.412;10.852;2023-11-19T10:42:15;9.07;;;1.77;;
43327;SDS011;28923;45.412;10.852;2023-11-19T10:44:41;10.18;;;1.98;;
43327;SDS011;28923;45.412;10.852;2023-11-19T10:47:07;5.78;;;1.92;;
43327;SDS011;28923;45.412;10.852;2023-11-19T10:49:33;5.88;;;1.60;;
43327;SDS011;28923;45.412;10.852;2023-11-19T10:52:00;3.72;;;1.88;;
43327;SDS011;28923;45.412;10.852;2023-11-19T10:54:26;4.72;;;2.00;;
43327;SDS011;28923;45.412;10.852;2023-11-19T10:56:55;3.25;;;1.73;;
43327;SDS011;28923;45.412;10.852;2023-11-19T10:59:22;3.63;;;1.80;;
43327;SDS011;28923;45.412;10.852;2023-11-19T11:01:48;3.10;;;1.80;;
43327;SDS011;28923;45.412;10.852;2023-11-19T11:04:22;4.22;;;1.80;;
43327;SDS011;28923;45.412;10.852;2023-11-19T11:06:48;4.60;;;2.03;;
43327;SDS011;28923;45.412;10.852;2023-11-19T11:09:14;3.35;;;2.10;;
43327;SDS011;28923;45.412;10.852;2023-11-19T11:15:08;3.28;;;2.20;;
43327;SDS011;28923;45.412;10.852;2023-11-19T11:17:38;6.65;;;1.70;;
43327;SDS011;28923;45.412;10.852;2023-11-19T11:20:04;4.43;;;1.80;;
43327;SDS011;28923;45.412;10.852;2023-11-19T11:22:31;3.85;;;1.90;;
43327;SDS011;28923;45.412;10.852;2023-11-19T11:25:16;5.03;;;1.85;;
43327;SDS011;28923;45.412;10.852;2023-11-19T11:32:53;5.32;;;1.70;;
43327;SDS011;28923;45.412;10.852;2023-11-19T11:37:54;2.80;;;2.10;;
43327;SDS011;28923;45.412;10.852;2023-11-19T11:40:21;3.97;;;2.40;;
43327;SDS011;28923;45.412;10.852;2023-11-19T11:42:48;3.63;;;2.25;;
43327;SDS011;28923;45.412;10.852;2023-11-19T11:45:16;8.02;;;2.60;;
43327;SDS011;28923;45.412;10.852;2023-11-19T11:50:07;4.53;;;1.95;;
43327;SDS011;28923;45.412;10.852;2023-11-19T11:52:33;4.47;;;1.90;;
43327;SDS011;28923;45.412;10.852;2023-11-19T11:55:04;6.32;;;1.95;;
43327;SDS011;28923;45.412;10.852;2023-11-19T11:57:35;3.53;;;2.15;;
43327;SDS011;28923;45.412;10.852;2023-11-19T12:00:02;6.40;;;2.28;;
43327;SDS011;28923;45.412;10.852;2023-11-19T12:02:30;2.20;;;1.85;;
43327;SDS011;28923;45.412;10.852;2023-11-19T12:04:56;3.97;;;2.00;;
43327;SDS011;28923;45.412;10.852;2023-11-19T12:07:22;2.83;;;1.77;;
43327;SDS011;28923;45.412;10.852;2023-11-19T12:09:51;4.32;;;2.00;;
43327;SDS011;28923;45.412;10.852;2023-11-19T12:12:18;6.45;;;2.00;;
43327;SDS011;28923;45.412;10.852;2023-11-19T12:20:05;2.95;;;1.63;;
43327;SDS011;28923;45.412;10.852;2023-11-19T12:22:40;3.20;;;1.70;;
43327;SDS011;28923;45.412;10.852;2023-11-19T12:25:06;4.35;;;1.95;;
43327;SDS011;28923;45.412;10.852;2023-11-19T12:27:32;3.00;;;1.70;;
43327;SDS011;28923;45.412;10.852;2023-11-19T12:29:59;2.70;;;1.70;;
43327;SDS011;28923;45.412;10.852;2023-11-19T12:32:24;2.45;;;1.70;;
43327;SDS011;28923;45.412;10.852;2023-11-19T12:34:50;3.75;;;1.80;;
43327;SDS011;28923;45.412;10.852;2023-11-19T12:37:16;2.35;;;1.70;;
43327;SDS011;28923;45.412;10.852;2023-11-19T12:39:41;3.40;;;1.52;;
43327;SDS011;28923;45.412;10.852;2023-11-19T12:42:07;3.33;;;1.63;;
43327;SDS011;28923;45.412;10.852;2023-11-19T12:44:32;2.45;;;1.58;;
43327;SDS011;28923;45.412;10.852;2023-11-19T12:47:00;5.07;;;2.08;;
43327;SDS011;28923;45.412;10.852;2023-11-19T12:49:26;2.47;;;2.00;;
43327;SDS011;28923;45.412;10.852;2023-11-19T12:51:52;3.05;;;1.80;;
43327;SDS011;28923;45.412;10.852;2023-11-19T12:54:17;6.38;;;2.10;;
43327;SDS011;28923;45.412;10.852;2023-11-19T12:56:52;3.38;;;1.80;;
43327;SDS011;28923;45.412;10.852;2023-11-19T12:59:18;4.40;;;1.92;;
43327;SDS011;28923;45.412;10.852;2023-11-19T13:01:58;5.90;;;2.00;;
43327;SDS011;28923;45.412;10.852;2023-11-19T13:04:28;6.68;;;2.05;;
43327;SDS011;28923;45.412;10.852;2023-11-19T13:06:53;8.23;;;2.17;;
43327;SDS011;28923;45.412;10.852;2023-11-19T13:09:25;5.05;;;2.10;;
43327;SDS011;28923;45.412;10.852;2023-11-19T13:11:51;4.15;;;1.83;;
43327;SDS011;28923;45.412;10.852;2023-11-19T13:14:17;3.85;;;1.70;;
43327;SDS011;28923;45.412;10.852;2023-11-19T13:16:44;8.98;;;2.20;;
43327;SDS011;28923;45.412;10.852;2023-11-19T13:19:10;4.57;;;2.05;;
43327;SDS011;28923;45.412;10.852;2023-11-19T13:21:36;3.60;;;1.80;;
43327;SDS011;28923;45.412;10.852;2023-11-19T13:24:02;3.03;;;1.85;;
43327;SDS011;28923;45.412;10.852;2023-11-19T13:26:27;3.85;;;1.60;;
43327;SDS011;28923;45.412;10.852;2023-11-19T13:28:53;10.88;;;1.80;;
43327;SDS011;28923;45.412;10.852;2023-11-19T13:31:18;4.82;;;1.70;;
43327;SDS011;28923;45.412;10.852;2023-11-19T13:33:43;5.50;;;1.95;;
43327;SDS011;28923;45.412;10.852;2023-11-19T13:36:09;3.25;;;1.60;;
43327;SDS011;28923;45.412;10.852;2023-11-19T13:38:35;8.45;;;2.17;;
43327;SDS011;28923;45.412;10.852;2023-11-19T13:41:01;5.00;;;2.15;;
43327;SDS011;28923;45.412;10.852;2023-11-19T13:43:26;2.75;;;1.70;;
43327;SDS011;28923;45.412;10.852;2023-11-19T13:45:53;4.22;;;1.98;;
43327;SDS011;28923;45.412;10.852;2023-11-19T13:48:19;3.58;;;1.88;;
43327;SDS011;28923;45.412;10.852;2023-11-19T13:50:45;5.53;;;1.85;;
43327;SDS011;28923;45.412;10.852;2023-11-19T13:53:10;4.47;;;1.92;;
43327;SDS011;28923;45.412;10.852;2023-11-19T13:55:35;5.57;;;2.03;;
43327;SDS011;28923;45.412;10.852;2023-11-19T13:58:01;4.38;;;2.10;;
43327;SDS011;28923;45.412;10.852;2023-11-19T14:00:26;4.25;;;2.08;;
43327;SDS011;28923;45.412;10.852;2023-11-19T14:02:52;2.75;;;1.63;;
43327;SDS011;28923;45.412;10.852;2023-11-19T14:05:17;3.20;;;1.77;;
43327;SDS011;28923;45.412;10.852;2023-11-19T14:07:43;6.15;;;1.90;;
43327;SDS011;28923;45.412;10.852;2023-11-19T14:10:09;5.88;;;1.73;;
43327;SDS011;28923;45.412;10.852;2023-11-19T14:12:36;4.43;;;2.05;;
43327;SDS011;28923;45.412;10.852;2023-11-19T14:15:03;5.35;;;2.30;;
43327;SDS011;28923;45.412;10.852;2023-11-19T14:17:31;4.40;;;2.20;;
43327;SDS011;28923;45.412;10.852;2023-11-19T14:19:58;6.82;;;2.08;;
43327;SDS011;28923;45.412;10.852;2023-11-19T14:22:23;3.78;;;2.00;;
43327;SDS011;28923;45.412;10.852;2023-11-19T14:24:49;5.57;;;1.92;;
43327;SDS011;28923;45.412;10.852;2023-11-19T14:27:15;3.15;;;1.70;;
43327;SDS011;28923;45.412;10.852;2023-11-19T14:29:42;5.75;;;1.98;;
43327;SDS011;28923;45.412;10.852;2023-11-19T14:32:07;6.43;;;1.63;;
43327;SDS011;28923;45.412;10.852;2023-11-19T14:34:33;6.47;;;2.00;;
43327;SDS011;28923;45.412;10.852;2023-11-19T14:36:58;4.10;;;2.10;;
43327;SDS011;28923;45.412;10.852;2023-11-19T14:39:24;4.45;;;1.67;;
43327;SDS011;28923;45.412;10.852;2023-11-19T14:41:49;2.70;;;1.58;;
43327;SDS011;28923;45.412;10.852;2023-11-19T14:44:16;5.28;;;1.75;;
43327;SDS011;28923;45.412;10.852;2023-11-19T14:46:41;3.45;;;1.85;;
43327;SDS011;28923;45.412;10.852;2023-11-19T14:49:07;3.15;;;1.48;;
43327;SDS011;28923;45.412;10.852;2023-11-19T14:51:36;5.75;;;1.70;;
43327;SDS011;28923;45.412;10.852;2023-11-19T14:54:02;3.03;;;1.60;;
43327;SDS011;28923;45.412;10.852;2023-11-19T14:56:28;3.85;;;1.83;;
43327;SDS011;28923;45.412;10.852;2023-11-19T14:58:53;8.23;;;1.70;;
43327;SDS011;28923;45.412;10.852;2023-11-19T15:01:18;3.70;;;1.75;;
43327;SDS011;28923;45.412;10.852;2023-11-19T15:03:44;3.05;;;1.63;;
43327;SDS011;28923;45.412;10.852;2023-11-19T15:06:09;1.88;;;1.60;;
43327;SDS011;28923;45.412;10.852;2023-11-19T15:08:36;3.20;;;1.30;;
43327;SDS011;28923;45.412;10.852;2023-11-19T15:11:02;4.72;;;1.70;;
43327;SDS011;28923;45.412;10.852;2023-11-19T15:13:30;5.55;;;1.70;;
43327;SDS011;28923;45.412;10.852;2023-11-19T15:15:55;5.30;;;1.88;;
43327;SDS011;28923;45.412;10.852;2023-11-19T15:18:21;5.95;;;1.95;;
43327;SDS011;28923;45.412;10.852;2023-11-19T15:20:47;2.78;;;1.67;;
43327;SDS011;28923;45.412;10.852;2023-11-19T15:23:13;2.47;;;1.40;;
43327;SDS011;28923;45.412;10.852;2023-11-19T15:25:38;3.83;;;1.50;;
43327;SDS011;28923;45.412;10.852;2023-11-19T15:28:04;1.60;;;1.45;;
43327;SDS011;28923;45.412;10.852;2023-11-19T15:30:29;3.33;;;1.40;;
43327;SDS011;28923;45.412;10.852;2023-11-19T15:32:54;2.53;;;1.45;;
43327;SDS011;28923;45.412;10.852;2023-11-19T15:35:20;1.95;;;1.52;;
43327;SDS011;28923;45.412;10.852;2023-11-19T15:37:45;2.63;;;1.60;;
43327;SDS011;28923;45.412;10.852;2023-11-19T15:40:11;2.45;;;1.63;;
43327;SDS011;28923;45.412;10.852;2023-11-19T15:42:38;1.80;;;1.45;;
43327;SDS011;28923;45.412;10.852;2023-11-19T15:45:05;4.18;;;1.45;;
43327;SDS011;28923;45.412;10.852;2023-11-19T15:47:31;3.30;;;1.75;;
43327;SDS011;28923;45.412;10.852;2023-11-19T15:49:57;2.40;;;1.63;;
43327;SDS011;28923;45.412;10.852;2023-11-19T15:52:22;2.65;;;1.40;;
43327;SDS011;28923;45.412;10.852;2023-11-19T15:54:48;3.28;;;1.50;;
43327;SDS011;28923;45.412;10.852;2023-11-19T15:57:14;7.30;;;2.15;;
43327;SDS011;28923;45.412;10.852;2023-11-19T15:59:39;2.08;;;1.70;;
43327;SDS011;28923;45.412;10.852;2023-11-19T16:02:05;3.50;;;1.85;;
43327;SDS011;28923;45.412;10.852;2023-11-19T16:04:30;3.40;;;2.03;;
43327;SDS011;28923;45.412;10.852;2023-11-19T16:06:55;2.28;;;1.92;;
43327;SDS011;28923;45.412;10.852;2023-11-19T16:09:21;3.05;;;2.00;;
43327;SDS011;28923;45.412;10.852;2023-11-19T16:11:47;2.78;;;1.95;;
43327;SDS011;28923;45.412;10.852;2023-11-19T16:14:13;4.15;;;2.08;;
43327;SDS011;28923;45.412;10.852;2023-11-19T16:16:40;3.97;;;2.30;;
43327;SDS011;28923;45.412;10.852;2023-11-19T16:19:05;5.72;;;2.05;;
43327;SDS011;28923;45.412;10.852;2023-11-19T16:21:31;4.32;;;2.20;;
43327;SDS011;28923;45.412;10.852;2023-11-19T16:23:57;4.40;;;2.35;;
43327;SDS011;28923;45.412;10.852;2023-11-19T16:26:22;4.20;;;2.45;;
43327;SDS011;28923;45.412;10.852;2023-11-19T16:28:48;3.35;;;2.60;;
43327;SDS011;28923;45.412;10.852;2023-11-19T16:31:13;4.72;;;2.72;;
43327;SDS011;28923;45.412;10.852;2023-11-19T16:33:38;4.00;;;2.80;;
43327;SDS011;28923;45.412;10.852;2023-11-19T16:36:04;5.68;;;2.92;;
43327;SDS011;28923;45.412;10.852;2023-11-19T16:38:29;8.35;;;2.55;;
43327;SDS011;28923;45.412;10.852;2023-11-19T16:40:55;3.13;;;2.83;;
43327;SDS011;28923;45.412;10.852;2023-11-19T16:43:21;5.85;;;3.15;;
43327;SDS011;28923;45.412;10.852;2023-11-19T16:45:48;4.45;;;2.80;;
43327;SDS011;28923;45.412;10.852;2023-11-19T16:48:13;6.70;;;2.97;;
43327;SDS011;28923;45.412;10.852;2023-11-19T16:50:39;5.78;;;2.67;;
43327;SDS011;28923;45.412;10.852;2023-11-19T16:53:04;6.13;;;2.90;;
43327;SDS011;28923;45.412;10.852;2023-11-19T16:55:30;3.80;;;3.00;;
43327;SDS011;28923;45.412;10.852;2023-11-19T16:57:55;5.35;;;3.03;;
43327;SDS011;28923;45.412;10.852;2023-11-19T17:00:21;3.58;;;2.50;;
43327;SDS011;28923;45.412;10.852;2023-11-19T17:02:46;4.57;;;2.72;;
43327;SDS011;28923;45.412;10.852;2023-11-19T17:05:12;3.60;;;2.72;;
43327;SDS011;28923;45.412;10.852;2023-11-19T17:07:39;4.25;;;2.70;;
43327;SDS011;28923;45.412;10.852;2023-11-19T17:10:05;4.72;;;2.80;;
43327;SDS011;28923;45.412;10.852;2023-11-19T17:12:32;5.22;;;2.92;;
43327;SDS011;28923;45.412;10.852;2023-11-19T17:14:57;6.35;;;3.28;;
43327;SDS011;28923;45.412;10.852;2023-11-19T17:17:38;5.40;;;3.10;;
43327;SDS011;28923;45.412;10.852;2023-11-19T17:20:03;4.80;;;3.00;;
43327;SDS011;28923;45.412;10.852;2023-11-19T17:24:59;4.13;;;2.63;;
43327;SDS011;28923;45.412;10.852;2023-11-19T17:27:25;6.85;;;3.33;;
43327;SDS011;28923;45.412;10.852;2023-11-19T17:29:52;5.80;;;2.97;;
43327;SDS011;28923;45.412;10.852;2023-11-19T17:32:18;5.07;;;2.85;;
43327;SDS011;28923;45.412;10.852;2023-11-19T17:34:43;5.65;;;3.22;;
43327;SDS011;28923;45.412;10.852;2023-11-19T17:37:08;6.78;;;2.90;;
43327;SDS011;28923;45.412;10.852;2023-11-19T17:39:34;4.05;;;2.80;;
43327;SDS011;28923;45.412;10.852;2023-11-19T17:41:59;6.22;;;2.78;;
43327;SDS011;28923;45.412;10.852;2023-11-19T17:44:24;4.55;;;3.00;;
43327;SDS011;28923;45.412;10.852;2023-11-19T17:46:51;4.97;;;3.20;;
43327;SDS011;28923;45.412;10.852;2023-11-19T17:49:17;4.15;;;3.08;;
43327;SDS011;28923;45.412;10.852;2023-11-19T17:51:44;4.75;;;2.85;;
43327;SDS011;28923;45.412;10.852;2023-11-19T17:54:09;4.38;;;3.08;;
43327;SDS011;28923;45.412;10.852;2023-11-19T17:56:35;3.13;;;2.80;;
43327;SDS011;28923;45.412;10.852;2023-11-19T17:59:00;3.65;;;2.95;;
43327;SDS011;28923;45.412;10.852;2023-11-19T18:01:26;3.05;;;2.47;;
43327;SDS011;28923;45.412;10.852;2023-11-19T18:03:51;6.43;;;2.70;;
43327;SDS011;28923;45.412;10.852;2023-11-19T18:06:17;3.42;;;3.05;;
43327;SDS011;28923;45.412;10.852;2023-11-19T18:08:43;4.43;;;2.92;;
43327;SDS011;28923;45.412;10.852;2023-11-19T18:11:08;5.45;;;2.92;;
43327;SDS011;28923;45.412;10.852;2023-11-19T18:13:35;5.03;;;2.95;;
43327;SDS011;28923;45.412;10.852;2023-11-19T18:16:01;3.67;;;2.78;;
43327;SDS011;28923;45.412;10.852;2023-11-19T18:18:26;3.53;;;2.97;;
43327;SDS011;28923;45.412;10.852;2023-11-19T18:20:52;3.42;;;2.33;;
43327;SDS011;28923;45.412;10.852;2023-11-19T18:23:17;6.05;;;3.50;;
43327;SDS011;28923;45.412;10.852;2023-11-19T18:25:43;6.00;;;3.72;;
43327;SDS011;28923;45.412;10.852;2023-11-19T18:28:11;4.32;;;3.45;;
43327;SDS011;28923;45.412;10.852;2023-11-19T18:30:37;4.57;;;3.28;;
43327;SDS011;28923;45.412;10.852;2023-11-19T18:33:02;3.83;;;3.05;;
43327;SDS011;28923;45.412;10.852;2023-11-19T18:35:28;6.70;;;3.70;;
43327;SDS011;28923;45.412;10.852;2023-11-19T18:37:53;4.55;;;3.28;;
43327;SDS011;28923;45.412;10.852;2023-11-19T18:40:19;5.10;;;3.38;;
43327;SDS011;28923;45.412;10.852;2023-11-19T18:42:49;5.38;;;3.15;;
43327;SDS011;28923;45.412;10.852;2023-11-19T18:45:14;4.32;;;3.35;;
43327;SDS011;28923;45.412;10.852;2023-11-19T18:47:41;5.10;;;2.90;;
43327;SDS011;28923;45.412;10.852;2023-11-19T18:50:06;6.05;;;3.83;;
43327;SDS011;28923;45.412;10.852;2023-11-19T18:52:35;7.88;;;3.15;;
43327;SDS011;28923;45.412;10.852;2023-11-19T18:55:00;5.22;;;3.28;;
43327;SDS011;28923;45.412;10.852;2023-11-19T18:57:25;3.83;;;3.10;;
43327;SDS011;28923;45.412;10.852;2023-11-19T18:59:51;5.88;;;3.45;;
43327;SDS011;28923;45.412;10.852;2023-11-19T19:02:18;6.05;;;3.20;;
43327;SDS011;28923;45.412;10.852;2023-11-19T19:04:43;4.85;;;3.58;;
43327;SDS011;28923;45.412;10.852;2023-11-19T19:07:08;3.63;;;3.25;;
43327;SDS011;28923;45.412;10.852;2023-11-19T19:09:34;4.38;;;3.25;;
43327;SDS011;28923;45.412;10.852;2023-11-19T19:12:00;7.80;;;3.47;;
43327;SDS011;28923;45.412;10.852;2023-11-19T19:14:25;4.80;;;3.38;;
43327;SDS011;28923;45.412;10.852;2023-11-19T19:16:51;3.65;;;3.10;;
43327;SDS011;28923;45.412;10.852;2023-11-19T19:19:16;4.88;;;3.38;;
43327;SDS011;28923;45.412;10.852;2023-11-19T19:21:41;4.88;;;3.50;;
43327;SDS011;28923;45.412;10.852;2023-11-19T19:24:07;4.85;;;3.33;;
43327;SDS011;28923;45.412;10.852;2023-11-19T19:26:34;6.47;;;3.72;;
43327;SDS011;28923;45.412;10.852;2023-11-19T19:29:00;5.70;;;3.40;;
43327;SDS011;28923;45.412;10.852;2023-11-19T19:31:26;7.35;;;3.85;;
43327;SDS011;28923;45.412;10.852;2023-11-19T19:33:52;7.15;;;3.35;;
43327;SDS011;28923;45.412;10.852;2023-11-19T19:36:26;3.88;;;3.13;;
43327;SDS011;28923;45.412;10.852;2023-11-19T19:38:56;7.20;;;3.33;;
43327;SDS011;28923;45.412;10.852;2023-11-19T19:41:21;5.25;;;3.38;;
43327;SDS011;28923;45.412;10.852;2023-11-19T19:43:48;8.27;;;3.33;;
43327;SDS011;28923;45.412;10.852;2023-11-19T19:46:14;7.15;;;3.42;;
43327;SDS011;28923;45.412;10.852;2023-11-19T19:48:39;5.95;;;3.60;;
43327;SDS011;28923;45.412;10.852;2023-11-19T19:51:06;6.70;;;3.67;;
43327;SDS011;28923;45.412;10.852;2023-11-19T19:53:33;6.45;;;3.45;;
43327;SDS011;28923;45.412;10.852;2023-11-19T19:55:58;6.70;;;3.40;;